Time;durP1;ratioP1;P1;durP2;ratioP2;P2;SDS_P1;SDS_P2;PMS_P1;PMS_P2;Temp;Humidity;BMP_temperature;BMP_pressure;BME280_temperature;BME280_humidity;BME280_pressure;Samples;Min_cycle;Max_cycle;Signal;HPM_P1;HPM_P2
2021/01/08 00:01:46;;;;;;;59.65;35.85;;;6.40;99.90;;;;;;5088793;28;20315;-77
2021/01/08 00:04:13;;;;;;;56.30;33.92;;;6.30;99.90;;;;;;5091625;28;20039;-75
2021/01/08 00:06:38;;;;;;;63.85;35.38;;;6.30;99.90;;;;;;5092917;28;20016;-73
2021/01/08 00:09:04;;;;;;;62.05;34.35;;;6.30;99.90;;;;;;5092037;28;20024;-76
2021/01/08 00:11:34;;;;;;;55.22;31.77;;;6.30;99.90;;;;;;5074939;28;20323;-75
2021/01/08 00:14:02;;;;;;;60.25;32.05;;;6.20;99.90;;;;;;5092950;28;20031;-74
2021/01/08 00:16:35;;;;;;;60.80;33.80;;;6.30;99.90;;;;;;5103346;28;20028;-75
2021/01/08 00:19:04;;;;;;;55.13;34.83;;;6.30;99.90;;;;;;5106131;28;20098;-75
2021/01/08 00:21:37;;;;;;;59.53;35.78;;;6.40;99.90;;;;;;5095854;28;20075;-76
2021/01/08 00:24:05;;;;;;;55.25;32.35;;;6.40;99.90;;;;;;5093185;28;20016;-75
2021/01/08 00:26:30;;;;;;;61.92;35.40;;;6.50;99.90;;;;;;5093511;28;20048;-76
2021/01/08 00:28:56;;;;;;;60.70;32.35;;;6.50;99.90;;;;;;5088625;28;20508;-74
2021/01/08 00:31:22;;;;;;;49.83;33.65;;;6.60;99.90;;;;;;5087437;28;20079;-76
2021/01/08 00:33:47;;;;;;;45.00;25.30;;;6.60;99.90;;;;;;5086792;28;20420;-77
2021/01/08 00:36:13;;;;;;;44.10;24.67;;;6.60;99.90;;;;;;5092257;28;20031;-75
2021/01/08 00:38:39;;;;;;;43.08;26.25;;;6.70;99.90;;;;;;5092106;28;20028;-75
2021/01/08 00:41:04;;;;;;;46.53;26.88;;;6.60;99.90;;;;;;5091934;28;20038;-75
2021/01/08 00:43:30;;;;;;;44.05;27.20;;;6.60;99.90;;;;;;5078395;28;20078;-73
2021/01/08 00:45:56;;;;;;;45.50;27.80;;;6.50;99.90;;;;;;5078324;28;20378;-76
2021/01/08 00:48:21;;;;;;;47.38;29.92;;;6.40;99.90;;;;;;5099513;28;20016;-77
2021/01/08 00:50:47;;;;;;;51.03;29.27;;;6.40;99.90;;;;;;5099278;28;20020;-76
2021/01/08 00:53:13;;;;;;;52.88;31.23;;;6.30;99.90;;;;;;5099028;28;20434;-76
2021/01/08 00:55:38;;;;;;;60.38;31.38;;;6.20;99.90;;;;;;5099075;28;20381;-75
2021/01/08 00:58:04;;;;;;;59.92;33.40;;;6.10;99.90;;;;;;5098813;28;20078;-78
2021/01/08 01:00:30;;;;;;;56.13;34.20;;;6.00;99.90;;;;;;5098607;28;20039;-75
2021/01/08 01:02:56;;;;;;;59.30;34.97;;;5.90;99.90;;;;;;5099062;28;20268;-74
2021/01/08 01:05:21;;;;;;;54.22;33.65;;;6.00;99.90;;;;;;5098951;28;20043;-74
2021/01/08 01:07:49;;;;;;;59.85;34.42;;;6.00;99.90;;;;;;5098825;28;20016;-75
2021/01/08 01:10:15;;;;;;;68.35;36.85;;;5.90;99.90;;;;;;5099385;28;20081;-77
2021/01/08 01:12:40;;;;;;;57.70;35.78;;;5.80;99.90;;;;;;5098706;28;20036;-75
2021/01/08 01:15:07;;;;;;;55.20;32.00;;;5.80;99.90;;;;;;5098945;28;20031;-75
2021/01/08 01:17:41;;;;;;;59.13;31.27;;;5.80;99.90;;;;;;5098946;28;20024;-75
2021/01/08 01:20:07;;;;;;;51.03;27.17;;;5.80;99.90;;;;;;5098079;28;20020;-74
2021/01/08 01:22:33;;;;;;;53.28;28.65;;;5.80;99.90;;;;;;5094933;28;20066;-74
2021/01/08 01:24:58;;;;;;;53.95;26.70;;;5.80;99.90;;;;;;5076887;28;20020;-75
2021/01/08 01:27:24;;;;;;;46.85;26.33;;;5.80;99.90;;;;;;5098772;28;20032;-75
2021/01/08 01:29:50;;;;;;;44.05;24.48;;;5.80;99.90;;;;;;5092333;28;20028;-74
2021/01/08 01:32:15;;;;;;;42.33;25.35;;;5.90;99.90;;;;;;5088902;28;20056;-78
2021/01/08 01:34:42;;;;;;;41.35;24.27;;;5.80;99.90;;;;;;5096559;28;20398;-77
2021/01/08 01:37:07;;;;;;;41.67;23.98;;;5.80;99.90;;;;;;5098005;28;20030;-78
2021/01/08 01:39:33;;;;;;;43.78;23.23;;;5.90;99.90;;;;;;5098560;28;20492;-76
2021/01/08 01:41:59;;;;;;;45.60;25.05;;;5.80;99.90;;;;;;5072093;28;20386;-75
2021/01/08 01:44:24;;;;;;;46.25;21.80;;;5.90;99.90;;;;;;5093044;28;20028;-76
2021/01/08 01:46:50;;;;;;;41.17;22.48;;;5.90;99.90;;;;;;5098155;28;20027;-76
2021/01/08 01:49:16;;;;;;;44.25;24.38;;;5.90;99.90;;;;;;5098593;28;20081;-74
2021/01/08 01:51:41;;;;;;;42.53;22.67;;;5.90;99.90;;;;;;5098163;28;20035;-74
2021/01/08 01:54:08;;;;;;;39.20;21.90;;;6.10;99.90;;;;;;5097979;28;20020;-73
2021/01/08 01:56:33;;;;;;;35.65;20.90;;;5.90;99.90;;;;;;5097882;28;20020;-74
2021/01/08 01:58:59;;;;;;;40.28;21.13;;;5.90;99.90;;;;;;5095848;28;20050;-71
2021/01/08 02:01:25;;;;;;;36.83;20.65;;;5.90;99.90;;;;;;5095853;28;20520;-73
2021/01/08 02:03:56;;;;;;;36.40;20.60;;;5.90;99.90;;;;;;5093991;28;20039;-74
2021/01/08 02:06:38;;;;;;;32.47;19.30;;;5.90;99.90;;;;;;5085015;28;20149;-75
2021/01/08 02:09:14;;;;;;;32.13;17.88;;;5.90;99.90;;;;;;5095749;28;20023;-74
2021/01/08 02:11:46;;;;;;;30.42;17.50;;;6.20;99.90;;;;;;5095757;28;20444;-73
2021/01/08 02:14:19;;;;;;;24.83;16.58;;;5.90;99.90;;;;;;5077372;28;20439;-74
2021/01/08 02:16:49;;;;;;;27.05;16.10;;;5.90;99.90;;;;;;5077844;28;20035;-73
2021/01/08 02:19:27;;;;;;;26.60;17.15;;;5.70;99.90;;;;;;5095551;28;20024;-74
2021/01/08 02:21:59;;;;;;;31.05;18.38;;;5.80;99.90;;;;;;5095243;28;20034;-73
2021/01/08 02:24:55;;;;;;;25.10;15.13;;;5.80;99.90;;;;;;5075487;28;20036;-74
2021/01/08 02:27:20;;;;;;;25.10;16.13;;;5.80;99.90;;;;;;5080896;28;20128;-73
2021/01/08 02:29:46;;;;;;;19.00;14.13;;;5.80;99.90;;;;;;5077360;28;20484;-74
2021/01/08 02:32:12;;;;;;;21.92;13.57;;;5.80;99.90;;;;;;5095791;28;20059;-73
2021/01/08 02:34:38;;;;;;;22.17;14.15;;;5.80;99.90;;;;;;5077373;28;20047;-74
2021/01/08 02:37:05;;;;;;;21.13;15.07;;;5.80;99.90;;;;;;5095539;28;20016;-73
2021/01/08 02:39:31;;;;;;;21.45;13.05;;;5.90;99.90;;;;;;5095098;28;20025;-73
2021/01/08 02:41:59;;;;;;;21.77;14.32;;;5.80;99.90;;;;;;5094981;28;20054;-74
2021/01/08 02:44:24;;;;;;;18.65;11.25;;;5.80;99.90;;;;;;5095283;28;20043;-74
2021/01/08 02:46:50;;;;;;;16.27;9.60;;;5.90;99.90;;;;;;5074936;28;20021;-73
2021/01/08 02:49:16;;;;;;;16.38;10.70;;;5.90;99.90;;;;;;5082972;28;20031;-74
2021/01/08 02:51:42;;;;;;;16.38;11.15;;;5.90;99.90;;;;;;5080911;28;20024;-74
2021/01/08 02:54:10;;;;;;;17.92;10.77;;;5.90;99.90;;;;;;5095175;28;20450;-73
2021/01/08 02:56:47;;;;;;;18.77;11.30;;;5.90;99.90;;;;;;5094553;28;20035;-72
2021/01/08 02:59:13;;;;;;;14.45;9.18;;;5.80;99.90;;;;;;5081049;28;20107;-73
2021/01/08 03:01:41;;;;;;;12.18;8.57;;;5.80;99.90;;;;;;5094748;28;20461;-74
2021/01/08 03:04:07;;;;;;;13.88;9.18;;;5.80;99.90;;;;;;5094643;28;20028;-74
2021/01/08 03:06:33;;;;;;;11.27;7.78;;;5.80;99.90;;;;;;5076860;28;20355;-72
2021/01/08 03:09:00;;;;;;;12.68;7.35;;;5.80;99.90;;;;;;5094025;28;20028;-74
2021/01/08 03:11:27;;;;;;;8.15;6.40;;;5.80;99.90;;;;;;5094497;28;20032;-73
2021/01/08 03:13:54;;;;;;;12.35;7.43;;;5.80;99.90;;;;;;5066355;28;20028;-73
2021/01/08 03:16:20;;;;;;;9.93;5.93;;;5.80;99.90;;;;;;5094039;28;20039;-72
2021/01/08 03:18:46;;;;;;;8.70;5.85;;;5.80;99.90;;;;;;5094450;28;20028;-72
2021/01/08 03:21:12;;;;;;;10.10;6.60;;;5.70;99.90;;;;;;5094482;28;20039;-72
2021/01/08 03:23:37;;;;;;;10.13;6.22;;;5.70;99.90;;;;;;5094249;28;20024;-73
2021/01/08 03:26:03;;;;;;;11.38;6.85;;;5.70;99.90;;;;;;5091115;28;20371;-72
2021/01/08 03:28:29;;;;;;;10.80;6.18;;;5.70;99.90;;;;;;5083378;28;20103;-74
2021/01/08 03:30:54;;;;;;;11.45;7.07;;;5.70;99.90;;;;;;5093824;28;20052;-74
2021/01/08 03:33:20;;;;;;;8.40;5.72;;;5.70;99.90;;;;;;5087489;28;20029;-73
2021/01/08 03:35:46;;;;;;;10.40;6.15;;;5.70;99.90;;;;;;5087274;28;20024;-72
2021/01/08 03:38:12;;;;;;;10.82;7.65;;;5.70;99.90;;;;;;5094264;28;20024;-73
2021/01/08 03:40:40;;;;;;;13.07;8.60;;;5.70;99.90;;;;;;5094554;28;20028;-74
2021/01/08 03:43:08;;;;;;;15.63;9.82;;;5.70;99.90;;;;;;5079845;28;20115;-73
2021/01/08 03:45:33;;;;;;;15.50;9.13;;;5.70;99.90;;;;;;5093783;28;20366;-73
2021/01/08 03:47:59;;;;;;;25.40;9.90;;;5.60;99.90;;;;;;5093506;28;20093;-73
2021/01/08 03:50:25;;;;;;;11.02;7.72;;;5.60;99.90;;;;;;5094140;28;20073;-74
2021/01/08 03:52:50;;;;;;;12.15;8.02;;;5.60;99.90;;;;;;5093817;28;20024;-74
2021/01/08 03:55:16;;;;;;;13.98;9.45;;;5.60;99.90;;;;;;5092382;28;20073;-73
2021/01/08 03:57:42;;;;;;;16.38;9.13;;;5.60;99.90;;;;;;5081061;28;20058;-74
2021/01/08 04:00:08;;;;;;;15.45;9.57;;;5.60;99.90;;;;;;5093756;28;20021;-73
2021/01/08 04:02:34;;;;;;;14.23;8.90;;;5.50;99.90;;;;;;5093677;28;20503;-73
2021/01/08 04:05:00;;;;;;;15.85;9.68;;;5.50;99.90;;;;;;5094012;28;20505;-73
2021/01/08 04:07:26;;;;;;;14.35;11.20;;;5.50;99.90;;;;;;5093373;28;20478;-73
2021/01/08 04:09:51;;;;;;;16.23;9.80;;;5.60;99.90;;;;;;5093903;28;20031;-73
2021/01/08 04:12:17;;;;;;;13.82;8.77;;;5.50;99.90;;;;;;5093589;28;20024;-73
2021/01/08 04:14:43;;;;;;;15.25;8.10;;;5.50;99.90;;;;;;5085538;28;20150;-73
2021/01/08 04:17:09;;;;;;;21.00;9.95;;;5.50;99.90;;;;;;5088586;28;20055;-73
2021/01/08 04:19:35;;;;;;;14.77;8.98;;;5.50;99.90;;;;;;5074810;28;20146;-71
2021/01/08 04:22:00;;;;;;;13.98;8.57;;;5.40;99.90;;;;;;5093435;28;20032;-73
2021/01/08 04:24:26;;;;;;;17.95;9.40;;;5.40;99.90;;;;;;5094003;28;20028;-74
2021/01/08 04:26:52;;;;;;;14.15;7.35;;;5.30;99.90;;;;;;5093408;28;20028;-73
2021/01/08 04:29:18;;;;;;;14.38;7.53;;;5.30;99.90;;;;;;5094460;28;20086;-75
2021/01/08 04:31:44;;;;;;;11.20;6.13;;;5.30;99.90;;;;;;5093311;28;20079;-72
2021/01/08 04:34:09;;;;;;;11.07;5.13;;;5.30;99.90;;;;;;5089783;28;20102;-72
2021/01/08 04:36:35;;;;;;;11.20;6.90;;;5.30;99.90;;;;;;5087157;28;20036;-73
2021/01/08 04:39:01;;;;;;;8.73;5.55;;;5.30;99.90;;;;;;5091374;28;20020;-73
2021/01/08 04:41:28;;;;;;;9.93;5.53;;;5.20;99.90;;;;;;5091397;28;20351;-74
2021/01/08 04:43:54;;;;;;;7.25;5.60;;;5.30;99.90;;;;;;5093244;28;20031;-72
2021/01/08 04:46:27;;;;;;;10.45;6.05;;;5.30;99.90;;;;;;5081285;28;20028;-74
2021/01/08 04:48:55;;;;;;;10.05;6.35;;;5.20;99.90;;;;;;5091847;28;20370;-74
2021/01/08 04:51:23;;;;;;;10.32;5.57;;;5.20;99.90;;;;;;5093216;28;20032;-73
2021/01/08 04:53:50;;;;;;;10.20;6.20;;;5.20;99.90;;;;;;5092973;28;20020;-73
2021/01/08 04:56:18;;;;;;;10.45;6.10;;;5.40;99.90;;;;;;5074838;28;20020;-72
2021/01/08 04:58:46;;;;;;;9.13;6.13;;;5.30;99.90;;;;;;5093111;28;20110;-73
2021/01/08 05:01:12;;;;;;;12.45;6.55;;;5.40;99.90;;;;;;5092957;28;20033;-72
2021/01/08 05:03:38;;;;;;;10.77;5.18;;;5.40;99.90;;;;;;5091340;28;20043;-72
2021/01/08 05:06:04;;;;;;;7.60;4.35;;;5.30;99.90;;;;;;5092052;28;20017;-72
2021/01/08 05:08:30;;;;;;;6.93;5.25;;;5.30;99.90;;;;;;5070270;28;20022;-72
2021/01/08 05:10:59;;;;;;;7.82;5.57;;;5.30;99.90;;;;;;5092480;28;20024;-71
2021/01/08 05:13:37;;;;;;;9.55;5.35;;;5.30;99.90;;;;;;5090836;28;20489;-73
2021/01/08 05:16:03;;;;;;;8.77;5.28;;;5.20;99.90;;;;;;5064254;28;20027;-72
2021/01/08 05:18:30;;;;;;;9.75;6.45;;;5.30;99.90;;;;;;5092616;28;20028;-73
2021/01/08 05:20:56;;;;;;;10.35;5.97;;;5.30;99.90;;;;;;5092571;28;20723;-73
2021/01/08 05:23:22;;;;;;;10.93;6.10;;;5.20;99.90;;;;;;5074438;28;20040;-74
2021/01/08 05:25:48;;;;;;;7.65;5.38;;;5.20;99.90;;;;;;5092856;28;20085;-72
2021/01/08 05:28:18;;;;;;;8.68;4.32;;;5.20;99.90;;;;;;5092801;28;20055;-73
2021/01/08 05:30:45;;;;;;;9.77;4.78;;;5.20;99.90;;;;;;5092480;28;20024;-73
2021/01/08 05:33:16;;;;;;;7.65;5.43;;;5.20;99.90;;;;;;5095260;28;20073;-73
2021/01/08 05:35:43;;;;;;;10.82;5.63;;;5.20;99.90;;;;;;5070223;28;20025;-73
2021/01/08 05:38:09;;;;;;;10.52;6.20;;;5.30;99.90;;;;;;5094969;28;20020;-72
2021/01/08 05:40:44;;;;;;;15.48;7.65;;;5.30;99.90;;;;;;5096618;28;20048;-73
2021/01/08 05:43:10;;;;;;;23.40;8.90;;;5.20;99.90;;;;;;5096220;28;20024;-76
2021/01/08 05:45:36;;;;;;;15.05;7.78;;;5.30;99.90;;;;;;5095721;28;20024;-71
2021/01/08 05:48:05;;;;;;;12.60;6.80;;;5.30;99.90;;;;;;5096640;28;20052;-73
2021/01/08 05:50:30;;;;;;;11.00;5.97;;;5.30;99.90;;;;;;5094940;28;20016;-72
2021/01/08 05:52:58;;;;;;;9.35;6.07;;;5.30;99.90;;;;;;5094401;28;20055;-72
2021/01/08 05:55:27;;;;;;;13.63;9.10;;;5.40;99.90;;;;;;5094263;28;20024;-72
2021/01/08 05:57:54;;;;;;;10.77;6.95;;;5.30;99.90;;;;;;5094158;28;20032;-73
2021/01/08 06:00:20;;;;;;;9.25;6.70;;;5.30;99.90;;;;;;5094790;28;20476;-72
2021/01/08 06:02:48;;;;;;;10.73;6.93;;;5.40;99.90;;;;;;5095280;28;20027;-72
2021/01/08 06:05:16;;;;;;;14.70;7.93;;;5.30;99.90;;;;;;5094887;28;20031;-72
2021/01/08 06:07:47;;;;;;;13.05;8.48;;;5.30;99.90;;;;;;5096001;28;20103;-72
2021/01/08 06:10:18;;;;;;;16.08;8.85;;;5.20;99.90;;;;;;5096065;28;20035;-72
2021/01/08 06:12:45;;;;;;;16.02;8.55;;;5.20;99.90;;;;;;5095945;28;20020;-73
2021/01/08 06:15:16;;;;;;;15.45;7.15;;;5.20;99.90;;;;;;5095495;28;20020;-72
2021/01/08 06:17:47;;;;;;;16.00;7.88;;;5.30;99.90;;;;;;5094995;28;20020;-71
2021/01/08 06:20:13;;;;;;;10.60;6.55;;;5.20;99.90;;;;;;5076714;28;20034;-72
2021/01/08 06:22:41;;;;;;;14.88;8.80;;;5.20;99.90;;;;;;5095310;28;20496;-71
2021/01/08 06:25:08;;;;;;;13.98;8.80;;;5.20;99.90;;;;;;5095715;28;20020;-72
2021/01/08 06:27:35;;;;;;;14.60;8.85;;;5.20;99.90;;;;;;5095158;28;20020;-71
2021/01/08 06:30:06;;;;;;;17.40;10.25;;;5.30;99.90;;;;;;5095677;28;20519;-73
2021/01/08 06:32:33;;;;;;;18.52;11.32;;;5.30;99.90;;;;;;5092314;28;20052;-73
2021/01/08 06:35:08;;;;;;;18.38;11.35;;;5.30;99.90;;;;;;5095545;28;20023;-75
2021/01/08 06:37:41;;;;;;;17.05;10.32;;;5.10;99.90;;;;;;5092695;28;20374;-75
2021/01/08 06:40:08;;;;;;;;;;;5.10;99.90;;;;;;5066900;28;20025;-75
2021/01/08 06:42:42;;;;;;;27.75;14.77;;;5.20;99.90;;;;;;5091359;28;19958;-76
2021/01/08 06:45:14;;;;;;;43.13;20.55;;;5.10;99.90;;;;;;5094776;28;20028;-75
2021/01/08 06:47:44;;;;;;;50.67;23.92;;;5.20;99.90;;;;;;5094993;28;20520;-75
2021/01/08 06:50:19;;;;;;;53.85;27.35;;;5.20;99.90;;;;;;5095190;28;20455;-74
2021/01/08 06:52:47;;;;;;;43.95;21.88;;;5.30;99.90;;;;;;5094623;28;20028;-75
2021/01/08 06:55:21;;;;;;;50.70;28.15;;;5.30;99.90;;;;;;5094344;28;20032;-75
2021/01/08 06:57:54;;;;;;;52.83;25.88;;;5.40;99.90;;;;;;5092817;28;20024;-75
2021/01/08 07:00:39;;;;;;;45.43;25.23;;;5.40;99.90;;;;;;5094959;28;20028;-75
2021/01/08 07:03:10;;;;;;;50.28;24.67;;;5.30;99.90;;;;;;5069503;28;20086;-74
2021/01/08 07:05:36;;;;;;;48.03;25.23;;;5.30;99.90;;;;;;5094228;28;20028;-75
2021/01/08 07:08:03;;;;;;;38.15;20.77;;;5.30;99.90;;;;;;5094388;28;20099;-74
2021/01/08 07:10:31;;;;;;;29.60;16.95;;;5.30;99.90;;;;;;5064168;28;20375;-72
2021/01/08 07:12:57;;;;;;;25.65;13.85;;;5.40;99.90;;;;;;5093931;28;20114;-74
2021/01/08 07:15:25;;;;;;;18.40;12.30;;;5.30;99.90;;;;;;5093388;28;20062;-73
2021/01/08 07:17:58;;;;;;;20.77;11.98;;;5.40;99.90;;;;;;5093137;28;20099;-72
2021/01/08 07:20:24;;;;;;;;;;;5.30;99.90;;;;;;5093560;28;20039;-73
2021/01/08 07:22:55;;;;;;;13.10;8.95;;;5.30;99.90;;;;;;5092599;28;19977;-72
2021/01/08 07:25:24;;;;;;;13.15;8.93;;;5.20;99.90;;;;;;5092995;28;20028;-74
2021/01/08 07:27:50;;;;;;;16.38;10.40;;;5.10;99.90;;;;;;5092607;28;20055;-73
2021/01/08 07:30:16;;;;;;;18.27;10.50;;;5.00;99.90;;;;;;5092189;28;20051;-72
2021/01/08 07:32:48;;;;;;;28.67;17.05;;;5.00;99.90;;;;;;5092613;28;20047;-73
2021/01/08 07:35:31;;;;;;;18.38;10.20;;;5.00;99.90;;;;;;5092859;28;20020;-72
2021/01/08 07:37:58;;;;;;;9.95;6.22;;;5.10;99.90;;;;;;5092789;28;20474;-73
2021/01/08 07:40:48;;;;;;;14.45;9.05;;;5.00;99.90;;;;;;5092680;28;20093;-73
2021/01/08 07:43:14;;;;;;;14.40;8.02;;;5.00;99.90;;;;;;5078111;28;20398;-73
2021/01/08 07:45:53;;;;;;;16.30;9.40;;;5.20;99.90;;;;;;5092440;28;20775;-74
2021/01/08 07:48:27;;;;;;;21.13;12.60;;;5.10;99.90;;;;;;5093145;28;20092;-73
2021/01/08 07:51:00;;;;;;;31.83;15.23;;;5.20;99.90;;;;;;5091411;28;20065;-71
2021/01/08 07:53:46;;;;;;;40.78;20.67;;;5.20;99.90;;;;;;5075212;28;20396;-73
2021/01/08 07:56:33;;;;;;;36.67;19.05;;;5.10;99.90;;;;;;5091269;28;20039;-72
2021/01/08 07:59:08;;;;;;;47.80;26.65;;;5.20;99.90;;;;;;5092378;28;20051;-72
2021/01/08 08:01:35;;;;;;;35.80;21.10;;;5.30;99.90;;;;;;5093384;28;20111;-73
2021/01/08 08:04:08;;;;;;;26.58;15.27;;;5.20;99.90;;;;;;5093050;28;20024;-71
2021/01/08 08:06:36;;;;;;;32.92;18.67;;;5.20;99.90;;;;;;5093562;28;20051;-73
2021/01/08 08:09:06;;;;;;;36.05;18.88;;;5.20;99.90;;;;;;5093856;28;20055;-74
2021/01/08 08:11:35;;;;;;;20.70;10.75;;;5.20;99.90;;;;;;5093486;28;20382;-76
2021/01/08 08:14:02;;;;;;;21.55;10.52;;;5.10;99.90;;;;;;5093231;28;20031;-72
2021/01/08 08:16:35;;;;;;;27.65;13.65;;;5.20;99.90;;;;;;5093425;28;20032;-73
2021/01/08 08:19:01;;;;;;;17.23;9.00;;;5.00;99.90;;;;;;5092161;28;20027;-73
2021/01/08 08:21:27;;;;;;;14.32;7.65;;;5.00;99.90;;;;;;5080086;28;20036;-74
2021/01/08 08:23:56;;;;;;;16.05;9.15;;;4.90;99.90;;;;;;5091648;28;20024;-72
2021/01/08 08:26:23;;;;;;;14.27;7.53;;;4.90;99.90;;;;;;5091298;28;20031;-74
2021/01/08 08:29:02;;;;;;;16.90;9.55;;;4.90;99.90;;;;;;5073503;28;20578;-74
2021/01/08 08:31:34;;;;;;;9.45;5.68;;;4.80;99.90;;;;;;5091882;28;20054;-73
2021/01/08 08:34:00;;;;;;;13.73;6.53;;;4.90;99.90;;;;;;5092171;28;20035;-71
2021/01/08 08:36:28;;;;;;;14.68;7.78;;;4.80;99.90;;;;;;5092623;28;20032;-71
2021/01/08 08:39:07;;;;;;;21.17;12.10;;;4.80;99.90;;;;;;5091829;28;20016;-72
2021/01/08 08:41:38;;;;;;;23.05;13.63;;;4.70;99.90;;;;;;5090701;28;20032;-72
2021/01/08 08:44:10;;;;;;;24.20;14.82;;;4.80;99.90;;;;;;5093094;28;20028;-73
2021/01/08 08:46:46;;;;;;;21.60;11.90;;;4.80;99.90;;;;;;5092791;28;20020;-71
2021/01/08 08:49:13;;;;;;;20.13;11.15;;;4.90;99.90;;;;;;5092925;28;20028;-72
2021/01/08 08:51:44;;;;;;;18.98;9.70;;;4.90;99.90;;;;;;5093097;28;20098;-72
2021/01/08 08:54:11;;;;;;;17.63;10.63;;;4.80;99.90;;;;;;5079401;28;20021;-72
2021/01/08 08:56:47;;;;;;;20.55;11.30;;;4.80;99.90;;;;;;5092995;28;20028;-73
2021/01/08 08:59:12;;;;;;;16.98;9.30;;;4.70;99.90;;;;;;5092187;28;20024;-71
2021/01/08 09:01:42;;;;;;;11.15;7.53;;;4.70;99.90;;;;;;5074160;28;20381;-71
2021/01/08 09:04:09;;;;;;;15.00;7.68;;;4.80;99.90;;;;;;5092916;28;20411;-71
2021/01/08 09:06:37;;;;;;;15.70;9.02;;;4.90;99.90;;;;;;5094113;28;20099;-72
2021/01/08 09:09:25;;;;;;;16.13;9.63;;;4.90;99.90;;;;;;5096356;28;20035;-78
2021/01/08 09:12:30;;;;;;;21.88;12.68;;;5.00;99.90;;;;;;5078465;28;20020;-73
2021/01/08 09:15:00;;;;;;;;;;;4.90;99.90;;;;;;5014097;28;20033;-73
2021/01/08 09:17:33;;;;;;;21.00;11.98;;;5.00;99.90;;;;;;5013885;28;19909;-72
2021/01/08 09:20:02;;;;;;;25.80;15.73;;;4.90;99.90;;;;;;5015643;28;20752;-72
2021/01/08 09:22:33;;;;;;;29.63;17.30;;;4.90;99.90;;;;;;5013305;28;20025;-71
2021/01/08 09:25:00;;;;;;;21.00;12.70;;;4.70;99.90;;;;;;5008870;28;20056;-71
2021/01/08 09:27:27;;;;;;;18.42;8.80;;;4.60;99.90;;;;;;5013007;28;20041;-71
2021/01/08 09:29:53;;;;;;;17.00;8.77;;;4.60;99.90;;;;;;5013251;28;20101;-70
2021/01/08 09:32:32;;;;;;;17.42;10.25;;;4.50;99.90;;;;;;5012998;28;20049;-70
2021/01/08 09:35:04;;;;;;;16.88;8.57;;;4.50;99.90;;;;;;5013326;28;20030;-71
2021/01/08 09:37:38;;;;;;;15.32;9.25;;;4.40;99.90;;;;;;5012723;28;20424;-72
2021/01/08 09:40:15;;;;;;;19.08;10.10;;;4.50;99.90;;;;;;5015976;28;20472;-71
2021/01/08 09:42:42;;;;;;;19.83;10.32;;;4.50;99.90;;;;;;5016309;28;20112;-71
2021/01/08 09:45:18;;;;;;;17.58;9.07;;;4.50;99.90;;;;;;5008054;28;20050;-71
2021/01/08 09:47:43;;;;;;;14.05;7.03;;;4.50;99.90;;;;;;5008286;28;20154;-71
2021/01/08 09:50:10;;;;;;;9.63;6.25;;;4.40;99.90;;;;;;5017691;28;20109;-73
2021/01/08 09:52:35;;;;;;;15.20;7.18;;;4.50;99.90;;;;;;5089982;28;20358;-74
2021/01/08 09:55:03;;;;;;;11.38;6.07;;;4.50;99.90;;;;;;5089828;28;20028;-74
2021/01/08 09:57:34;;;;;;;12.57;7.20;;;4.50;99.90;;;;;;5090937;28;20075;-72
2021/01/08 10:00:07;;;;;;;14.55;7.28;;;4.50;99.90;;;;;;5090826;28;20020;-73
2021/01/08 10:02:43;;;;;;;21.48;8.23;;;4.50;99.90;;;;;;5088035;28;20016;-74
2021/01/08 10:05:32;;;;;;;17.60;8.85;;;4.50;99.90;;;;;;5088276;28;20040;-73
2021/01/08 10:07:59;;;;;;;16.02;9.07;;;4.40;99.90;;;;;;5082880;28;20099;-74
2021/01/08 10:10:25;;;;;;;13.63;7.50;;;4.40;99.90;;;;;;5089960;28;20025;-71
2021/01/08 10:12:52;;;;;;;12.57;8.20;;;4.40;99.90;;;;;;5093909;28;20058;-73
2021/01/08 10:15:19;;;;;;;25.15;10.52;;;4.50;99.90;;;;;;5093695;28;20035;-72
2021/01/08 10:17:52;;;;;;;14.15;6.95;;;4.40;99.90;;;;;;5093406;28;20012;-71
2021/01/08 10:20:19;;;;;;;12.38;7.90;;;4.40;99.90;;;;;;5071137;28;20423;-71
2021/01/08 10:22:49;;;;;;;13.25;7.25;;;4.40;99.90;;;;;;5094401;28;20039;-72
2021/01/08 10:25:29;;;;;;;18.92;9.27;;;4.50;99.90;;;;;;5093884;28;20119;-71
2021/01/08 10:28:15;;;;;;;19.85;10.45;;;4.50;99.90;;;;;;5083409;28;20070;-72
2021/01/08 10:30:43;;;;;;;18.58;11.43;;;4.50;99.90;;;;;;5084070;28;20079;-73
2021/01/08 10:33:09;;;;;;;22.00;9.88;;;4.60;99.90;;;;;;5090514;28;20073;-72
2021/01/08 10:35:36;;;;;;;25.17;13.18;;;4.60;99.90;;;;;;5085433;28;20044;-74
2021/01/08 10:38:02;;;;;;;23.52;12.02;;;4.60;99.90;;;;;;5083345;28;20085;-74
2021/01/08 10:40:28;;;;;;;21.42;10.60;;;4.60;99.90;;;;;;5085228;28;20104;-72
2021/01/08 10:42:54;;;;;;;27.00;13.05;;;4.60;99.90;;;;;;5087876;28;20036;-71
2021/01/08 10:45:19;;;;;;;26.05;14.80;;;4.60;99.90;;;;;;5082930;28;20016;-74
2021/01/08 10:47:45;;;;;;;24.50;13.18;;;4.60;99.90;;;;;;5079816;28;20028;-70
2021/01/08 10:50:12;;;;;;;26.70;12.77;;;4.60;99.90;;;;;;5088473;28;20032;-71
2021/01/08 10:52:38;;;;;;;27.77;14.85;;;4.50;99.90;;;;;;5089033;28;20511;-71
2021/01/08 10:55:05;;;;;;;18.73;10.93;;;4.40;99.90;;;;;;5075298;28;20104;-72
2021/01/08 10:57:31;;;;;;;24.10;11.80;;;4.40;99.90;;;;;;5080675;28;20504;-71
2021/01/08 10:59:57;;;;;;;19.80;10.15;;;4.40;99.90;;;;;;5085090;28;20112;-72
2021/01/08 11:02:23;;;;;;;26.92;13.43;;;4.40;99.90;;;;;;5091686;28;20064;-71
2021/01/08 11:04:48;;;;;;;14.65;9.15;;;4.40;99.90;;;;;;5094001;28;20052;-71
2021/01/08 11:07:14;;;;;;;13.07;6.82;;;4.30;99.90;;;;;;5089094;28;20028;-72
2021/01/08 11:09:40;;;;;;;15.55;7.60;;;4.30;99.90;;;;;;5093840;28;20162;-70
2021/01/08 11:12:06;;;;;;;15.70;7.57;;;4.30;99.90;;;;;;5094357;28;20032;-73
2021/01/08 11:14:32;;;;;;;25.83;11.80;;;4.40;99.90;;;;;;5091713;28;20466;-71
2021/01/08 11:16:58;;;;;;;12.00;7.32;;;4.30;99.90;;;;;;5094098;28;20035;-72
2021/01/08 11:19:25;;;;;;;14.27;10.20;;;4.30;99.90;;;;;;5090760;28;20490;-72
2021/01/08 11:21:56;;;;;;;19.30;11.55;;;4.40;99.90;;;;;;5088586;28;20111;-72
2021/01/08 11:24:22;;;;;;;22.30;11.23;;;4.40;99.90;;;;;;5087820;28;20035;-73
2021/01/08 11:26:48;;;;;;;28.65;16.00;;;4.40;99.90;;;;;;5087900;28;20032;-72
2021/01/08 11:29:14;;;;;;;26.10;13.48;;;4.50;99.90;;;;;;5093071;28;20535;-73
2021/01/08 11:31:40;;;;;;;21.85;13.10;;;4.50;99.90;;;;;;5084382;28;20083;-74
2021/01/08 11:34:08;;;;;;;13.27;7.68;;;4.40;99.90;;;;;;5086777;28;20024;-74
2021/01/08 11:36:34;;;;;;;23.50;13.02;;;4.50;99.90;;;;;;5093513;28;20051;-76
2021/01/08 11:39:00;;;;;;;15.23;8.30;;;4.60;99.90;;;;;;5093063;28;20102;-74
2021/01/08 11:41:26;;;;;;;22.73;13.40;;;4.40;99.90;;;;;;5092764;28;20042;-72
2021/01/08 11:43:52;;;;;;;18.45;10.98;;;4.40;99.90;;;;;;5088748;28;20612;-72
2021/01/08 11:46:19;;;;;;;13.32;7.72;;;4.40;99.90;;;;;;5084355;28;20102;-78
2021/01/08 11:48:46;;;;;;;13.55;8.13;;;4.40;99.90;;;;;;5088777;28;20020;-73
2021/01/08 11:51:15;;;;;;;12.95;7.90;;;4.30;99.90;;;;;;5083033;28;20016;-74
2021/01/08 11:53:45;;;;;;;15.35;7.88;;;4.20;99.90;;;;;;5085859;28;20035;-74
2021/01/08 11:56:12;;;;;;;16.02;7.85;;;4.10;99.90;;;;;;5063238;28;20055;-72
2021/01/08 11:58:42;;;;;;;15.02;7.47;;;4.10;99.90;;;;;;5078080;28;20359;-73
2021/01/08 12:01:08;;;;;;;14.60;7.53;;;4.20;99.90;;;;;;5091824;28;20020;-75
2021/01/08 12:03:39;;;;;;;14.32;7.28;;;4.30;99.90;;;;;;5084058;28;20036;-72
2021/01/08 12:06:06;;;;;;;10.02;6.13;;;4.40;99.90;;;;;;5078661;28;20021;-75
2021/01/08 12:08:32;;;;;;;9.75;5.13;;;4.20;99.90;;;;;;5086525;28;20466;-73
2021/01/08 12:10:59;;;;;;;12.95;8.05;;;4.30;99.90;;;;;;5082391;28;20024;-77
2021/01/08 12:13:25;;;;;;;16.85;9.50;;;4.40;99.90;;;;;;5083553;28;20106;-75
2021/01/08 12:15:51;;;;;;;17.80;8.98;;;4.20;99.90;;;;;;5082262;28;20028;-76
2021/01/08 12:18:18;;;;;;;16.95;9.20;;;4.00;99.90;;;;;;5086425;28;20039;-78
2021/01/08 12:20:45;;;;;;;14.85;7.85;;;3.90;99.90;;;;;;5092471;28;20024;-72
2021/01/08 12:23:11;;;;;;;21.20;10.10;;;3.80;99.90;;;;;;5088753;28;20028;-75
2021/01/08 12:25:37;;;;;;;18.17;10.55;;;3.80;99.90;;;;;;5083881;28;20028;-75
2021/01/08 12:28:04;;;;;;;21.73;12.38;;;3.80;99.90;;;;;;5082421;28;20115;-75
2021/01/08 12:30:30;;;;;;;19.13;11.52;;;3.70;99.90;;;;;;5083319;28;20031;-74
2021/01/08 12:32:56;;;;;;;19.75;10.10;;;3.80;99.90;;;;;;5087896;28;20032;-75
2021/01/08 12:35:22;;;;;;;18.35;10.88;;;3.70;99.90;;;;;;5077884;28;20025;-75
2021/01/08 12:37:49;;;;;;;19.63;9.65;;;3.60;99.90;;;;;;5087984;28;20022;-75
2021/01/08 12:40:15;;;;;;;17.17;9.50;;;3.60;99.90;;;;;;5078132;28;20481;-75
2021/01/08 12:42:41;;;;;;;12.48;8.38;;;3.60;99.90;;;;;;5091783;28;20032;-75
2021/01/08 12:45:08;;;;;;;15.70;8.77;;;3.50;99.90;;;;;;5091769;28;20109;-76
2021/01/08 12:47:34;;;;;;;12.82;8.05;;;3.50;99.90;;;;;;5092431;28;20040;-78
2021/01/08 12:50:00;;;;;;;17.20;9.27;;;3.50;99.90;;;;;;5073950;28;20074;-79